createdAt,value
2018-09-30T00:01:58.845Z,4.07
2018-09-30T00:04:27.194Z,3.97
2018-09-30T00:06:55.651Z,3.83
2018-09-30T00:09:29.845Z,4.53
2018-09-30T00:12:00.785Z,4.03
2018-09-30T00:14:30.815Z,3.73
2018-09-30T00:17:00.024Z,3.97
2018-09-30T00:19:28.406Z,3.50
2018-09-30T00:21:56.771Z,3.70
2018-09-30T00:24:30.410Z,4.50
2018-09-30T00:27:02.361Z,4.20
2018-09-30T00:29:31.645Z,4.03
2018-09-30T00:32:01.562Z,4.17
2018-09-30T00:34:30.635Z,4.77
2018-09-30T00:37:01.290Z,4.63
2018-09-30T00:39:31.441Z,4.77
2018-09-30T00:42:00.685Z,4.63
2018-09-30T00:44:30.365Z,4.27
2018-09-30T00:46:59.734Z,4.67
2018-09-30T00:49:28.140Z,3.70
2018-09-30T00:51:57.410Z,4.07
2018-09-30T00:54:25.749Z,4.37
2018-09-30T00:56:54.088Z,4.17
2018-09-30T00:59:22.405Z,3.77
2018-09-30T01:13:13.755Z,4.00
2018-09-30T01:15:42.145Z,4.43
2018-09-30T01:18:11.369Z,4.93
2018-09-30T01:20:40.697Z,3.90
2018-09-30T01:23:09.930Z,4.97
2018-09-30T01:25:38.271Z,4.70
2018-09-30T01:28:07.802Z,4.40
2018-09-30T01:30:36.888Z,4.77
2018-09-30T01:33:05.651Z,4.13
2018-09-30T01:35:33.970Z,4.30
2018-09-30T01:38:02.321Z,4.23
2018-09-30T01:40:31.657Z,5.73
2018-09-30T01:43:00.874Z,4.23
2018-09-30T01:45:30.473Z,4.20
2018-09-30T01:48:00.901Z,4.23
2018-09-30T01:50:31.191Z,4.70
2018-09-30T01:52:59.968Z,4.40
2018-09-30T01:55:28.984Z,4.40
2018-09-30T01:57:57.312Z,4.77
2018-09-30T02:00:25.653Z,5.23
2018-09-30T02:02:54.860Z,5.30
2018-09-30T02:05:23.190Z,6.37
2018-09-30T02:07:51.637Z,6.00
2018-09-30T02:10:19.969Z,6.10
2018-09-30T02:12:48.397Z,6.27
2018-09-30T02:15:17.666Z,5.67
2018-09-30T02:17:46.900Z,5.80
2018-09-30T02:20:15.236Z,5.57
2018-09-30T02:22:43.558Z,5.53
2018-09-30T02:25:11.905Z,6.83
2018-09-30T02:27:40.242Z,4.80
2018-09-30T02:30:08.585Z,6.03
2018-09-30T02:32:37.837Z,6.23
2018-09-30T02:35:07.185Z,5.53
2018-09-30T02:37:36.927Z,5.83
2018-09-30T02:40:06.064Z,5.33
2018-09-30T02:42:34.433Z,6.00
2018-09-30T02:45:02.761Z,5.20
2018-09-30T02:47:32.221Z,5.93
2018-09-30T02:50:01.634Z,6.73
2018-09-30T02:52:30.986Z,6.00
2018-09-30T02:55:00.046Z,6.00
2018-09-30T02:57:29.054Z,5.80
2018-09-30T02:59:59.268Z,7.13
2018-09-30T03:02:27.638Z,6.23
2018-09-30T03:04:56.105Z,5.27
2018-09-30T03:07:29.761Z,5.70
2018-09-30T03:09:59.949Z,5.60
2018-09-30T03:12:30.462Z,5.80
2018-09-30T03:14:59.527Z,6.27
2018-09-30T03:17:27.857Z,5.70
2018-09-30T03:19:56.242Z,4.90
2018-09-30T03:22:25.422Z,5.50
2018-09-30T03:24:54.898Z,5.23
2018-09-30T03:27:24.057Z,7.17
2018-09-30T03:29:53.405Z,6.50
2018-09-30T03:32:22.723Z,5.87
2018-09-30T03:34:51.039Z,5.77
2018-09-30T03:37:19.368Z,4.60
2018-09-30T03:39:47.725Z,5.23
2018-09-30T03:42:16.056Z,5.00
2018-09-30T03:44:45.349Z,5.83
2018-09-30T03:47:14.155Z,5.93
2018-09-30T03:49:43.582Z,4.63
2018-09-30T03:52:12.806Z,5.60
2018-09-30T03:54:42.074Z,5.40
2018-09-30T03:57:10.773Z,5.70
2018-09-30T03:59:39.121Z,4.30
2018-09-30T04:02:08.085Z,5.53
2018-09-30T04:04:37.293Z,4.93
2018-09-30T04:07:06.358Z,5.10
2018-09-30T04:09:35.830Z,5.43
2018-09-30T04:12:04.922Z,4.90
2018-09-30T04:14:34.297Z,6.03
2018-09-30T04:17:02.673Z,5.10
2018-09-30T04:19:31.776Z,5.27
2018-09-30T04:22:00.093Z,4.80
2018-09-30T04:24:30.348Z,4.87
2018-09-30T04:27:00.097Z,5.13
2018-09-30T04:29:30.089Z,5.30
2018-09-30T04:31:59.201Z,4.30
2018-09-30T04:34:27.525Z,4.43
2018-09-30T04:36:55.852Z,4.83
2018-09-30T04:39:25.116Z,5.70
2018-09-30T04:41:53.455Z,5.03
2018-09-30T04:44:22.796Z,5.63
2018-09-30T04:46:51.134Z,5.10
2018-09-30T04:49:20.369Z,4.63
2018-09-30T04:51:49.629Z,5.03
2018-09-30T04:54:18.825Z,5.17
2018-09-30T04:56:48.158Z,5.43
2018-09-30T04:59:17.352Z,5.27
2018-09-30T05:01:46.569Z,6.90
2018-09-30T05:04:15.793Z,6.03
2018-09-30T05:06:45.035Z,4.40
2018-09-30T05:09:14.301Z,4.93
2018-09-30T05:11:43.517Z,5.27
2018-09-30T05:14:12.349Z,4.83
2018-09-30T05:16:41.554Z,4.77
2018-09-30T05:19:10.944Z,4.83
2018-09-30T05:21:39.269Z,4.77
2018-09-30T05:24:08.081Z,5.80
2018-09-30T05:26:38.425Z,5.27
2018-09-30T05:29:08.133Z,5.10
2018-09-30T05:31:38.884Z,5.80
2018-09-30T05:34:08.360Z,4.67
2018-09-30T05:36:39.140Z,5.00
2018-09-30T05:39:09.609Z,4.50
2018-09-30T05:41:38.168Z,6.00
2018-09-30T05:44:08.212Z,4.70
2018-09-30T05:46:38.393Z,4.70
2018-09-30T05:49:08.561Z,5.77
2018-09-30T05:51:39.258Z,4.90
2018-09-30T05:54:08.175Z,4.77
2018-09-30T05:56:37.719Z,4.77
2018-09-30T05:59:07.173Z,4.73
2018-09-30T06:01:36.876Z,4.17
2018-09-30T06:04:06.457Z,4.43
2018-09-30T06:06:34.768Z,5.30
2018-09-30T06:09:07.198Z,5.00
2018-09-30T06:11:37.336Z,5.00
2018-09-30T06:14:05.917Z,4.30
2018-09-30T06:16:35.009Z,5.10
2018-09-30T06:19:03.413Z,4.50
2018-09-30T06:21:32.637Z,4.40
2018-09-30T06:24:01.801Z,5.93
2018-09-30T06:26:32.184Z,4.90
2018-09-30T06:29:02.545Z,4.97
2018-09-30T06:31:31.792Z,4.90
2018-09-30T06:34:02.162Z,4.70
2018-09-30T06:36:32.345Z,7.07
2018-09-30T06:39:01.627Z,5.00
2018-09-30T06:41:30.836Z,5.80
2018-09-30T06:44:00.790Z,5.37
2018-09-30T06:46:30.014Z,5.70
2018-09-30T06:49:00.289Z,5.03
2018-09-30T06:51:30.182Z,4.83
2018-09-30T06:54:00.229Z,4.27
2018-09-30T06:56:29.131Z,4.20
2018-09-30T06:58:57.457Z,4.10
2018-09-30T07:01:25.870Z,4.33
2018-09-30T07:03:54.239Z,3.97
2018-09-30T07:06:22.566Z,4.07
2018-09-30T07:08:50.932Z,3.80
2018-09-30T07:11:19.261Z,4.47
2018-09-30T07:13:47.569Z,4.57
2018-09-30T07:16:15.898Z,4.47
2018-09-30T07:18:45.170Z,4.20
2018-09-30T07:21:13.497Z,3.97
2018-09-30T07:23:41.817Z,3.60
2018-09-30T07:26:10.252Z,3.90
2018-09-30T07:28:39.262Z,4.00
2018-09-30T07:31:08.610Z,3.10
2018-09-30T07:33:37.685Z,4.63
2018-09-30T07:36:07.493Z,3.70
2018-09-30T07:38:35.854Z,4.17
2018-09-30T07:41:04.236Z,4.10
2018-09-30T07:43:32.585Z,4.10
2018-09-30T07:46:01.645Z,7.00
2018-09-30T07:48:31.021Z,4.80
2018-09-30T07:51:01.051Z,4.63
2018-09-30T07:53:30.716Z,3.53
2018-09-30T07:55:59.825Z,3.67
2018-09-30T07:58:30.253Z,3.53
2018-09-30T08:01:00.340Z,3.80
2018-09-30T08:03:30.343Z,3.57
2018-09-30T08:05:59.704Z,3.30
2018-09-30T08:08:29.569Z,3.23
2018-09-30T08:10:59.265Z,3.03
2018-09-30T08:13:27.628Z,2.60
2018-09-30T08:15:56.776Z,2.77
2018-09-30T08:18:26.021Z,2.97
2018-09-30T08:20:55.277Z,3.40
2018-09-30T08:23:24.662Z,2.77
2018-09-30T08:25:53.890Z,2.80
2018-09-30T08:28:23.129Z,2.87
2018-09-30T08:30:51.504Z,3.80
2018-09-30T08:33:20.770Z,2.57
2018-09-30T08:35:55.188Z,3.33
2018-09-30T08:38:32.391Z,2.90
2018-09-30T08:41:07.153Z,2.90
2018-09-30T08:43:37.493Z,2.43
2018-09-30T08:46:06.946Z,2.67
2018-09-30T08:48:35.288Z,2.70
2018-09-30T08:51:03.641Z,2.23
2018-09-30T08:53:31.994Z,1.90
2018-09-30T08:56:01.135Z,3.37
2018-09-30T08:58:30.789Z,2.37
2018-09-30T09:01:00.091Z,2.10
2018-09-30T09:03:28.429Z,2.17
2018-09-30T09:05:57.705Z,2.53
2018-09-30T09:08:26.102Z,2.27
2018-09-30T09:10:54.437Z,1.80
2018-09-30T09:13:22.805Z,2.30
2018-09-30T09:15:51.146Z,2.20
2018-09-30T09:18:19.688Z,2.00
2018-09-30T09:20:48.185Z,3.90
2018-09-30T09:23:16.518Z,1.70
2018-09-30T09:25:44.849Z,1.80
2018-09-30T09:28:13.240Z,2.00
2018-09-30T09:30:42.425Z,1.70
2018-09-30T09:33:11.879Z,1.80
2018-09-30T09:35:40.130Z,1.63
2018-09-30T09:38:09.797Z,2.13
2018-09-30T09:40:39.228Z,1.87
2018-09-30T09:43:08.629Z,2.23
2018-09-30T09:45:37.897Z,2.43
2018-09-30T09:48:06.790Z,1.70
2018-09-30T09:50:37.044Z,2.17
2018-09-30T09:53:06.192Z,1.97
2018-09-30T09:55:34.560Z,2.13
2018-09-30T09:58:02.905Z,2.43
2018-09-30T10:00:37.506Z,1.70
2018-09-30T10:03:05.852Z,1.90
2018-09-30T10:05:34.249Z,2.37
2018-09-30T10:08:02.670Z,1.70
2018-09-30T10:10:31.089Z,2.40
2018-09-30T10:12:59.904Z,1.73
2018-09-30T10:15:30.115Z,1.83
2018-09-30T10:17:59.209Z,1.90
2018-09-30T10:20:27.565Z,1.80
2018-09-30T10:22:56.926Z,2.10
2018-09-30T10:25:26.161Z,1.97
2018-09-30T10:27:54.594Z,1.90
2018-09-30T10:30:22.917Z,2.00
2018-09-30T10:32:52.117Z,1.80
2018-09-30T10:35:20.450Z,1.67
2018-09-30T10:37:48.781Z,2.00
2018-09-30T10:40:17.146Z,2.23
2018-09-30T10:42:45.494Z,1.97
2018-09-30T10:45:14.733Z,2.30
2018-09-30T10:47:43.111Z,1.73
2018-09-30T10:50:12.326Z,2.10
2018-09-30T10:52:40.703Z,2.13
2018-09-30T10:55:09.043Z,2.50
2018-09-30T10:57:38.396Z,1.50
2018-09-30T11:00:08.945Z,1.83
2018-09-30T11:02:38.802Z,1.90
2018-09-30T11:05:08.738Z,1.47
2018-09-30T11:07:38.177Z,2.00
2018-09-30T11:10:07.224Z,1.60
2018-09-30T11:12:37.260Z,2.10
2018-09-30T11:15:07.308Z,2.23
2018-09-30T11:17:36.279Z,2.20
2018-09-30T11:20:06.489Z,2.23
2018-09-30T11:22:35.933Z,2.60
2018-09-30T11:25:05.075Z,1.67
2018-09-30T11:27:33.405Z,1.60
2018-09-30T11:30:02.385Z,2.60
2018-09-30T11:32:31.393Z,2.23
2018-09-30T11:35:01.541Z,2.40
2018-09-30T11:37:31.890Z,1.77
2018-09-30T11:40:00.813Z,1.77
2018-09-30T11:42:30.161Z,1.60
2018-09-30T11:44:59.932Z,2.17
2018-09-30T11:47:30.414Z,1.40
2018-09-30T11:49:59.303Z,1.53
2018-09-30T11:52:29.409Z,1.60
2018-09-30T11:54:59.261Z,1.77
2018-09-30T11:57:27.643Z,2.27
2018-09-30T11:59:56.969Z,1.70
2018-09-30T12:02:25.301Z,1.90
2018-09-30T12:04:54.576Z,1.93
2018-09-30T12:07:22.917Z,1.53
2018-09-30T12:09:51.249Z,1.80
2018-09-30T12:12:19.578Z,1.70
2018-09-30T12:14:48.965Z,1.70
2018-09-30T12:17:18.177Z,1.97
2018-09-30T12:19:46.629Z,1.40
2018-09-30T12:22:14.993Z,1.23
2018-09-30T12:24:43.338Z,1.63
2018-09-30T12:27:11.665Z,2.03
2018-09-30T12:29:40.888Z,1.60
2018-09-30T12:32:09.213Z,1.70
2018-09-30T12:34:38.621Z,1.77
2018-09-30T12:37:09.141Z,2.10
2018-09-30T12:39:38.061Z,1.90
2018-09-30T12:42:07.956Z,1.57
2018-09-30T12:44:36.953Z,1.67
2018-09-30T12:47:07.672Z,1.50
2018-09-30T12:49:36.753Z,1.47
2018-09-30T12:52:05.077Z,1.40
2018-09-30T12:54:34.285Z,2.00
2018-09-30T12:57:03.269Z,1.40
2018-09-30T12:59:31.697Z,2.00
2018-09-30T13:02:00.469Z,1.50
2018-09-30T13:04:30.464Z,1.83
2018-09-30T13:06:59.356Z,1.90
2018-09-30T13:09:27.713Z,1.60
2018-09-30T13:11:56.949Z,1.97
2018-09-30T13:14:25.300Z,3.70
2018-09-30T13:16:53.644Z,1.60
2018-09-30T13:19:22.020Z,1.70
2018-09-30T13:21:51.345Z,1.83
2018-09-30T13:24:20.614Z,1.80
2018-09-30T13:26:49.777Z,1.50
2018-09-30T13:29:19.061Z,1.50
2018-09-30T13:31:47.386Z,2.10
2018-09-30T13:34:15.742Z,1.73
2018-09-30T13:36:44.986Z,2.00
2018-09-30T13:39:13.365Z,1.63
2018-09-30T13:41:41.682Z,1.50
2018-09-30T13:44:10.042Z,1.60
2018-09-30T13:46:39.352Z,1.33
2018-09-30T13:49:08.691Z,1.50
2018-09-30T13:51:38.023Z,1.77
2018-09-30T13:54:07.657Z,1.60
2018-09-30T13:56:37.200Z,1.90
2018-09-30T13:59:06.141Z,2.13
2018-09-30T14:01:34.477Z,2.83
2018-09-30T14:04:02.798Z,1.77
2018-09-30T14:06:31.137Z,1.80
2018-09-30T14:09:01.294Z,1.87
2018-09-30T14:11:31.642Z,2.00
2018-09-30T14:14:02.529Z,1.63
2018-09-30T14:16:31.858Z,1.70
2018-09-30T14:19:01.410Z,1.57
2018-09-30T14:21:30.722Z,1.50
2018-09-30T14:23:59.358Z,1.70
2018-09-30T14:26:27.732Z,1.77
2018-09-30T14:28:56.060Z,1.70
2018-09-30T14:31:24.430Z,1.80
2018-09-30T14:33:52.851Z,1.70
2018-09-30T14:36:21.202Z,1.33
2018-09-30T14:38:50.457Z,1.60
2018-09-30T14:41:18.853Z,2.10
2018-09-30T14:43:48.072Z,1.73
2018-09-30T14:46:17.321Z,1.93
2018-09-30T14:48:45.685Z,1.90
2018-09-30T14:51:14.180Z,1.30
2018-09-30T14:53:42.614Z,2.33
2018-09-30T14:56:10.999Z,1.50
2018-09-30T14:58:40.701Z,2.90
2018-09-30T15:01:09.082Z,2.07
2018-09-30T15:03:37.955Z,1.60
2018-09-30T15:06:08.746Z,1.50
2018-09-30T15:08:37.969Z,1.50
2018-09-30T15:11:06.874Z,1.40
2018-09-30T15:13:37.013Z,1.60
2018-09-30T15:16:07.609Z,1.30
2018-09-30T15:18:35.962Z,1.60
2018-09-30T15:21:05.232Z,1.40
2018-09-30T15:23:34.468Z,2.20
2018-09-30T15:26:03.875Z,1.50
2018-09-30T15:28:33.082Z,1.97
2018-09-30T15:31:02.425Z,2.17
2018-09-30T15:33:31.810Z,1.70
2018-09-30T15:36:01.957Z,1.77
2018-09-30T15:38:31.349Z,2.40
2018-09-30T15:41:01.540Z,2.47
2018-09-30T15:43:31.817Z,2.50
2018-09-30T15:46:01.232Z,2.10
2018-09-30T15:48:31.212Z,1.80
2018-09-30T15:51:00.982Z,1.63
2018-09-30T15:53:30.174Z,2.03
2018-09-30T15:56:00.346Z,1.87
2018-09-30T15:58:28.719Z,1.90
2018-09-30T16:00:59.538Z,2.13
2018-09-30T16:03:29.437Z,1.97
2018-09-30T16:05:58.656Z,1.17
2018-09-30T16:08:27.072Z,1.93
2018-09-30T16:10:55.467Z,1.40
2018-09-30T16:13:24.590Z,1.57
2018-09-30T16:15:52.922Z,2.07
2018-09-30T16:18:21.329Z,1.53
2018-09-30T16:20:49.656Z,1.70
2018-09-30T16:23:17.977Z,2.13
2018-09-30T16:25:46.293Z,2.10
2018-09-30T16:28:14.703Z,1.80
2018-09-30T16:30:43.079Z,1.60
2018-09-30T16:33:11.437Z,1.83
2018-09-30T16:35:40.302Z,1.23
2018-09-30T16:38:09.465Z,1.53
2018-09-30T16:40:38.297Z,1.70
2018-09-30T16:43:08.198Z,1.43
2018-09-30T16:45:37.351Z,1.60
2018-09-30T16:48:07.315Z,2.23
2018-09-30T16:50:36.076Z,2.53
2018-09-30T16:53:04.450Z,3.50
2018-09-30T16:55:33.741Z,2.90
2018-09-30T16:58:02.688Z,3.40
2018-09-30T17:00:32.380Z,4.27
2018-09-30T17:03:02.773Z,4.20
2018-09-30T17:05:32.250Z,4.53
2018-09-30T17:08:01.839Z,3.80
2018-09-30T17:10:30.669Z,3.90
2018-09-30T17:12:59.550Z,4.30
2018-09-30T17:15:28.020Z,3.50
2018-09-30T17:17:57.395Z,3.90
2018-09-30T17:20:26.742Z,3.07
2018-09-30T17:22:56.105Z,4.10
2018-09-30T17:25:24.467Z,4.50
2018-09-30T17:27:52.833Z,5.33
2018-09-30T17:30:22.048Z,4.80
2018-09-30T17:32:50.414Z,5.90
2018-09-30T17:35:19.548Z,7.00
2018-09-30T17:37:47.941Z,11.60
2018-09-30T17:40:16.359Z,14.33
2018-09-30T17:42:44.696Z,15.37
2018-09-30T17:45:13.021Z,23.47
2018-09-30T17:47:41.352Z,17.30
2018-09-30T17:50:09.730Z,13.20
2018-09-30T17:52:38.928Z,19.50
2018-09-30T17:55:08.141Z,12.93
2018-09-30T17:57:37.607Z,12.03
2018-09-30T18:00:06.790Z,9.47
2018-09-30T18:02:35.126Z,6.90
2018-09-30T18:05:03.454Z,7.30
2018-09-30T18:07:32.489Z,6.80
2018-09-30T18:10:01.530Z,6.20
2018-09-30T18:12:30.757Z,6.70
2018-09-30T18:14:59.569Z,7.10
2018-09-30T18:17:27.957Z,9.30
2018-09-30T18:19:56.429Z,8.53
2018-09-30T18:22:24.778Z,8.77
2018-09-30T18:24:53.989Z,8.93
2018-09-30T18:27:22.336Z,7.50
2018-09-30T18:29:50.689Z,7.57
2018-09-30T18:32:19.919Z,9.00
2018-09-30T18:34:48.457Z,8.83
2018-09-30T18:37:16.850Z,9.10
2018-09-30T18:39:45.247Z,9.00
2018-09-30T18:42:13.621Z,10.23
2018-09-30T18:44:41.954Z,12.60
2018-09-30T18:47:11.324Z,11.23
2018-09-30T18:49:40.562Z,11.30
2018-09-30T18:52:09.241Z,10.00
2018-09-30T18:54:39.226Z,8.93
2018-09-30T18:57:08.989Z,8.63
2018-09-30T18:59:39.531Z,9.17
2018-09-30T19:02:08.717Z,9.50
2018-09-30T19:04:38.905Z,9.60
2018-09-30T19:07:07.897Z,11.23
2018-09-30T19:09:38.404Z,12.30
2018-09-30T19:12:07.508Z,14.00
2018-09-30T19:14:37.261Z,12.50
2018-09-30T19:17:07.366Z,12.37
2018-09-30T19:19:38.222Z,12.00
2018-09-30T19:22:08.595Z,13.50
2018-09-30T19:24:38.824Z,12.60
2018-09-30T19:27:08.461Z,14.10
2018-09-30T19:29:38.830Z,13.30
2018-09-30T19:32:09.031Z,15.00
2018-09-30T19:34:39.706Z,17.10
2018-09-30T19:37:09.061Z,17.00
2018-09-30T19:39:39.121Z,15.83
2018-09-30T19:42:09.069Z,16.03
2018-09-30T19:44:39.037Z,16.13
2018-09-30T19:47:09.407Z,15.43
2018-09-30T19:49:40.367Z,16.20
2018-09-30T19:52:09.820Z,16.57
2018-09-30T19:54:39.167Z,15.73
2018-09-30T19:57:08.697Z,15.90
2018-09-30T19:59:38.578Z,17.73
2018-09-30T20:02:09.341Z,15.20
2018-09-30T20:04:38.713Z,15.27
2018-09-30T20:07:08.041Z,17.30
2018-09-30T20:09:37.577Z,14.87
2018-09-30T20:12:07.027Z,14.60
2018-09-30T20:14:38.107Z,12.77
2018-09-30T20:17:07.309Z,9.03
2018-09-30T20:19:37.288Z,9.60
2018-09-30T20:22:10.737Z,8.80
2018-09-30T20:24:40.149Z,9.60
2018-09-30T20:27:10.039Z,9.43
2018-09-30T20:29:39.780Z,9.37
2018-09-30T20:32:08.860Z,8.13
2018-09-30T20:34:38.614Z,8.73
2018-09-30T20:37:07.683Z,8.80
2018-09-30T20:39:37.073Z,10.37
2018-09-30T20:42:07.643Z,11.37
2018-09-30T20:44:36.834Z,11.40
2018-09-30T20:47:05.184Z,13.93
2018-09-30T20:49:34.449Z,13.80
2018-09-30T20:52:02.781Z,13.30
2018-09-30T20:54:31.973Z,13.70
2018-09-30T20:57:00.773Z,13.80
2018-09-30T20:59:29.682Z,14.50
2018-09-30T21:01:59.931Z,13.57
2018-09-30T21:04:29.184Z,14.57
2018-09-30T21:06:57.508Z,12.63
2018-09-30T21:09:26.766Z,12.33
2018-09-30T21:11:55.969Z,11.60
2018-09-30T21:14:25.232Z,10.93
2018-09-30T21:16:53.621Z,9.63
2018-09-30T21:19:22.091Z,11.90
2018-09-30T21:21:50.440Z,11.13
2018-09-30T21:24:18.900Z,11.00
2018-09-30T21:26:48.355Z,12.40
2018-09-30T21:29:17.725Z,10.27
2018-09-30T21:31:47.001Z,14.27
2018-09-30T21:34:15.395Z,12.17
2018-09-30T21:36:44.795Z,12.63
2018-09-30T21:39:13.129Z,16.00
2018-09-30T21:41:41.512Z,14.10
2018-09-30T21:44:10.736Z,13.10
2018-09-30T21:46:40.222Z,14.67
2018-09-30T21:49:09.419Z,13.10
2018-09-30T21:51:38.365Z,13.93
2018-09-30T21:54:06.724Z,11.07
2018-09-30T21:56:37.402Z,11.67
2018-09-30T21:59:07.725Z,11.10
2018-09-30T22:01:37.353Z,11.70
2018-09-30T22:04:05.698Z,11.73
2018-09-30T22:06:34.901Z,10.80
2018-09-30T22:09:03.284Z,10.03
2018-09-30T22:11:33.065Z,10.07
2018-09-30T22:14:02.793Z,11.93
2018-09-30T22:16:33.520Z,9.40
2018-09-30T22:19:02.906Z,11.53
2018-09-30T22:21:32.237Z,11.40
2018-09-30T22:24:02.347Z,10.83
2018-09-30T22:26:31.808Z,9.43
2018-09-30T22:29:01.846Z,9.60
2018-09-30T22:31:32.658Z,10.27
2018-09-30T22:34:02.896Z,10.10
2018-09-30T22:36:32.308Z,10.10
2018-09-30T22:39:01.786Z,9.23
2018-09-30T22:41:31.325Z,10.30
2018-09-30T22:44:01.626Z,9.77
2018-09-30T22:46:30.717Z,9.40
2018-09-30T22:49:00.899Z,9.97
2018-09-30T22:51:29.743Z,10.20
2018-09-30T22:53:58.949Z,10.03
2018-09-30T22:56:28.348Z,9.17
2018-09-30T22:58:57.713Z,10.63
2018-09-30T23:01:26.135Z,9.53
2018-09-30T23:03:54.502Z,8.83
2018-09-30T23:06:23.836Z,9.17
2018-09-30T23:08:52.181Z,9.13
2018-09-30T23:11:21.471Z,8.27
2018-09-30T23:13:50.819Z,8.50
2018-09-30T23:16:20.070Z,10.03
2018-09-30T23:18:49.282Z,8.83
2018-09-30T23:21:18.497Z,9.17
2018-09-30T23:23:46.868Z,8.10
2018-09-30T23:26:16.149Z,8.00
2018-09-30T23:28:45.393Z,8.93
2018-09-30T23:31:13.713Z,8.17
2018-09-30T23:33:43.114Z,9.00
2018-09-30T23:36:12.469Z,9.73
2018-09-30T23:38:40.931Z,8.37
2018-09-30T23:41:10.059Z,8.07
2018-09-30T23:43:39.483Z,8.33
2018-09-30T23:46:08.493Z,9.57
2018-09-30T23:48:38.638Z,10.13
2018-09-30T23:51:07.709Z,8.20
2018-09-30T23:53:37.029Z,9.73
2018-09-30T23:56:06.394Z,8.93
2018-09-30T23:58:34.816Z,9.20
